Time;durP1;ratioP1;P1;durP2;ratioP2;P2;SDS_P1;SDS_P2;PMS_P1;PMS_P2;Temp;Humidity;BMP_temperature;BMP_pressure;BME280_temperature;BME280_humidity;BME280_pressure;Samples;Min_cycle;Max_cycle;Signal;HPM_P1;HPM_P2
2023/06/29 00:00:34;;;;;;;2.42;1.30;;;;;;;17.48;50.54;96786.25;4917538;29;20083;-75
2023/06/29 00:03:02;;;;;;;1.40;1.30;;;;;;;17.50;50.62;96788.69;4916515;29;20134;-76
2023/06/29 00:05:30;;;;;;;2.28;1.85;;;;;;;17.48;50.29;96793.38;4915375;29;20052;-75
2023/06/29 00:07:58;;;;;;;2.33;1.88;;;;;;;17.38;50.63;96790.44;4913866;29;20048;-75
2023/06/29 00:10:28;;;;;;;1.95;1.70;;;;;;;17.33;51.13;96791.09;4916125;29;20491;-76
2023/06/29 00:12:57;;;;;;;1.58;1.48;;;;;;;17.33;51.09;96787.66;4914535;29;20048;-77
2023/06/29 00:15:24;;;;;;;1.95;1.80;;;;;;;17.31;50.87;96779.97;4913972;29;20116;-76
2023/06/29 00:17:54;;;;;;;2.08;1.80;;;;;;;17.33;50.91;96785.03;4931449;29;20048;-76
2023/06/29 00:20:28;;;;;;;1.60;1.42;;;;;;;17.38;50.89;96774.63;4932995;29;20062;-74
2023/06/29 00:22:57;;;;;;;2.03;1.35;;;;;;;17.45;50.92;96775.38;4934354;29;20064;-74
2023/06/29 00:25:24;;;;;;;3.40;1.88;;;;;;;17.52;50.83;96781.38;4927466;29;20059;-75
2023/06/29 00:27:53;;;;;;;2.85;1.50;;;;;;;17.57;51.09;96778.84;4916282;29;20048;-76
2023/06/29 00:30:21;;;;;;;1.95;1.58;;;;;;;17.61;50.30;96773.97;4916656;29;20116;-75
2023/06/29 00:32:49;;;;;;;3.83;2.28;;;;;;;17.60;50.27;96772.31;4917491;29;20052;-75
2023/06/29 00:35:17;;;;;;;2.40;1.58;;;;;;;17.62;50.55;96781.66;4920433;29;20063;-77
2023/06/29 00:37:44;;;;;;;2.40;1.50;;;;;;;17.59;50.04;96774.16;4920463;29;20052;-76
2023/06/29 00:40:13;;;;;;;2.63;1.80;;;;;;;17.49;50.48;96771.25;4920219;29;20048;-77
2023/06/29 00:42:41;;;;;;;3.40;1.52;;;;;;;17.37;50.64;96770.38;4920469;29;20056;-76
2023/06/29 00:45:11;;;;;;;1.98;1.80;;;;;;;17.26;51.11;96762.19;4920846;29;20313;-77
2023/06/29 00:47:39;;;;;;;1.95;1.80;;;;;;;17.20;51.24;96768.31;4920659;29;20096;-76
2023/06/29 00:50:07;;;;;;;5.35;1.98;;;;;;;17.15;51.17;96760.28;4919957;29;20083;-77
2023/06/29 00:52:35;;;;;;;3.78;1.60;;;;;;;17.08;51.48;96760.34;4919533;29;20472;-76
2023/06/29 00:55:03;;;;;;;2.33;1.90;;;;;;;17.04;51.62;96764.44;4920686;29;20452;-77
2023/06/29 00:57:31;;;;;;;3.20;1.75;;;;;;;17.00;51.85;96757.19;4921199;29;20099;-77
2023/06/29 01:00:00;;;;;;;3.63;1.60;;;;;;;16.95;51.79;96765.75;4921033;29;20083;-77
2023/06/29 01:02:30;;;;;;;2.30;1.90;;;;;;;16.88;52.10;96763.19;4920630;29;20500;-76
2023/06/29 01:04:58;;;;;;;2.65;2.28;;;;;;;16.81;52.26;96757.16;4919976;29;20055;-75
2023/06/29 01:07:31;;;;;;;3.03;1.80;;;;;;;16.80;52.32;96760.03;4919299;29;20412;-75
2023/06/29 01:09:59;;;;;;;1.90;1.80;;;;;;;16.86;52.14;96756.53;4919900;29;20056;-77
2023/06/29 01:12:27;;;;;;;3.65;1.70;;;;;;;16.88;52.12;96757.91;4919501;29;20072;-76
2023/06/29 01:14:56;;;;;;;3.15;2.05;;;;;;;16.82;52.26;96750.88;4919415;29;20088;-76
2023/06/29 01:17:28;;;;;;;3.67;1.92;;;;;;;16.75;52.32;96755.38;4918770;29;20048;-76
2023/06/29 01:19:58;;;;;;;2.38;1.38;;;;;;;16.69;52.46;96758.88;4920221;29;20119;-76
2023/06/29 01:22:29;;;;;;;4.80;2.80;;;;;;;16.62;52.68;96750.22;4920189;29;20059;-77
2023/06/29 01:25:00;;;;;;;1.58;1.45;;;;;;;16.56;52.94;96751.09;4920754;29;20051;-77
2023/06/29 01:27:28;;;;;;;3.13;1.98;;;;;;;16.53;52.95;96740.97;4919240;29;20104;-77
2023/06/29 01:30:00;;;;;;;1.95;1.77;;;;;;;16.48;53.00;96745.06;4918957;29;20059;-76
2023/06/29 01:32:33;;;;;;;;;;;;;;;16.48;53.05;96750.31;4919577;29;20056;-76
2023/06/29 01:35:02;;;;;;;2.45;2.00;;;;;;;16.40;53.11;96742.72;4919145;29;19973;-77
2023/06/29 01:37:37;;;;;;;1.92;1.80;;;;;;;16.37;53.69;96745.75;4918872;29;20055;-75
2023/06/29 01:40:10;;;;;;;1.92;1.80;;;;;;;16.31;53.72;96744.00;4919010;29;20119;-76
2023/06/29 01:42:39;;;;;;;3.83;1.88;;;;;;;16.33;53.84;96738.50;4972077;23;20408;-75
2023/06/29 01:45:08;;;;;;;2.25;1.85;;;;;;;16.31;53.74;96738.75;4956135;28;20110;-75
2023/06/29 01:47:36;;;;;;;2.72;1.80;;;;;;;16.35;53.92;96739.91;4956956;29;20058;-75
2023/06/29 01:50:05;;;;;;;2.30;1.60;;;;;;;16.42;53.75;96740.69;4956616;29;20054;-75
2023/06/29 01:52:32;;;;;;;2.00;1.80;;;;;;;16.42;53.67;96730.16;4956247;28;20106;-74
2023/06/29 01:55:00;;;;;;;1.70;1.60;;;;;;;16.43;53.64;96736.22;4956377;29;20086;-75
2023/06/29 01:57:29;;;;;;;2.47;2.00;;;;;;;16.51;53.54;96721.94;4955886;28;20102;-75
2023/06/29 01:59:57;;;;;;;2.35;1.77;;;;;;;16.63;53.30;96725.50;4956188;28;20495;-75
2023/06/29 02:02:24;;;;;;;1.70;1.60;;;;;;;16.73;52.86;96725.03;4956070;28;20188;-74
2023/06/29 02:04:52;;;;;;;2.90;2.08;;;;;;;16.71;52.92;96730.50;4955978;29;20051;-75
2023/06/29 02:07:20;;;;;;;1.60;1.50;;;;;;;16.70;53.11;96723.59;4955861;29;20058;-75
2023/06/29 02:09:47;;;;;;;2.67;1.90;;;;;;;16.69;52.85;96720.16;4955607;28;20048;-75
2023/06/29 02:12:15;;;;;;;4.28;2.05;;;;;;;16.63;53.20;96725.50;4959468;28;20111;-75
2023/06/29 02:14:44;;;;;;;2.15;1.80;;;;;;;16.65;53.33;96723.44;4966697;28;20051;-76
2023/06/29 02:17:12;;;;;;;1.65;1.55;;;;;;;16.71;53.26;96722.59;4962750;29;20058;-75
2023/06/29 02:19:40;;;;;;;1.88;1.73;;;;;;;16.74;52.80;96722.16;4956392;28;20106;-75
2023/06/29 02:22:07;;;;;;;2.08;1.83;;;;;;;16.70;52.82;96720.97;4955749;29;20055;-75
2023/06/29 02:24:35;;;;;;;2.45;1.60;;;;;;;16.70;53.27;96723.59;4955519;28;20574;-75
2023/06/29 02:27:03;;;;;;;2.45;2.22;;;;;;;16.67;52.94;96721.41;4955309;29;20051;-75
2023/06/29 02:29:30;;;;;;;3.88;1.80;;;;;;;16.59;53.05;96721.69;4955502;28;20051;-75
2023/06/29 02:31:59;;;;;;;5.22;2.25;;;;;;;16.48;53.23;96718.72;4955244;29;20529;-75
2023/06/29 02:34:27;;;;;;;2.63;2.42;;;;;;;16.40;53.37;96703.22;4955494;28;20086;-75
2023/06/29 02:36:54;;;;;;;2.78;2.10;;;;;;;16.32;53.63;96710.59;4949007;28;20079;-75
2023/06/29 02:39:22;;;;;;;2.58;2.15;;;;;;;16.27;53.68;96713.88;4936042;29;20564;-75
2023/06/29 02:41:49;;;;;;;4.07;2.60;;;;;;;16.24;53.69;96706.38;4942051;29;20590;-75
2023/06/29 02:44:17;;;;;;;8.20;2.53;;;;;;;16.25;53.92;96700.13;4955197;28;20098;-75
2023/06/29 02:46:46;;;;;;;2.78;2.45;;;;;;;16.28;53.73;96699.66;4954830;28;20083;-75
2023/06/29 02:49:16;;;;;;;3.20;2.35;;;;;;;16.30;53.78;96705.53;4955113;29;20066;-75
2023/06/29 02:51:43;;;;;;;4.35;2.40;;;;;;;16.28;53.69;96697.84;4954811;28;20478;-75
2023/06/29 02:54:11;;;;;;;2.80;2.50;;;;;;;16.30;53.74;96697.63;4955007;29;20134;-75
2023/06/29 02:56:38;;;;;;;2.97;2.17;;;;;;;16.35;54.62;96708.31;4954405;28;20146;-75
2023/06/29 02:59:06;;;;;;;2.63;2.28;;;;;;;16.36;53.78;96694.16;4954898;28;20482;-74
2023/06/29 03:01:34;;;;;;;3.55;2.45;;;;;;;16.28;53.88;96697.84;4954832;28;20519;-75
2023/06/29 03:04:01;;;;;;;2.78;2.38;;;;;;;16.21;54.02;96704.19;4954665;28;20057;-75
2023/06/29 03:06:30;;;;;;;2.85;2.22;;;;;;;16.15;54.11;96702.41;4954830;29;20061;-75
2023/06/29 03:08:58;;;;;;;2.80;1.90;;;;;;;16.09;54.14;96698.78;4954727;29;20047;-75
2023/06/29 03:11:25;;;;;;;1.98;1.83;;;;;;;16.08;54.30;96691.13;4954617;28;20109;-75
2023/06/29 03:13:55;;;;;;;4.00;2.30;;;;;;;16.03;54.23;96684.69;4954688;29;20462;-75
2023/06/29 03:16:23;;;;;;;4.28;2.22;;;;;;;15.97;54.43;96695.25;4954283;29;20046;-75
2023/06/29 03:18:50;;;;;;;2.08;1.90;;;;;;;15.91;54.70;96690.84;4954580;28;20047;-75
2023/06/29 03:21:19;;;;;;;2.40;1.88;;;;;;;15.86;54.96;96694.91;4954606;29;20054;-75
2023/06/29 03:23:49;;;;;;;3.60;2.33;;;;;;;15.80;55.14;96690.50;4954603;29;20507;-75
2023/06/29 03:26:17;;;;;;;3.33;2.30;;;;;;;15.78;55.02;96686.47;4954368;29;20054;-75
2023/06/29 03:28:44;;;;;;;3.45;1.73;;;;;;;15.78;55.10;96694.38;4954503;28;20396;-76
2023/06/29 03:31:12;;;;;;;2.45;2.25;;;;;;;15.77;55.22;96684.88;4954220;28;20577;-75
2023/06/29 03:33:40;;;;;;;2.15;1.70;;;;;;;15.75;55.05;96686.91;4954541;29;20122;-75
2023/06/29 03:36:11;;;;;;;1.70;1.60;;;;;;;15.74;55.45;96682.66;4954560;28;20047;-76
2023/06/29 03:38:38;;;;;;;2.05;1.70;;;;;;;15.76;55.76;96684.06;4916219;29;20056;-75
2023/06/29 03:41:07;;;;;;;3.08;2.20;;;;;;;15.81;55.93;96678.19;4916593;29;20107;-75
2023/06/29 03:43:35;;;;;;;1.98;1.77;;;;;;;15.88;55.68;96678.13;4954117;28;20086;-76
2023/06/29 03:46:02;;;;;;;3.95;2.00;;;;;;;15.95;55.46;96676.25;4954684;28;20055;-75
2023/06/29 03:48:30;;;;;;;2.92;1.60;;;;;;;15.99;55.36;96680.88;4953831;28;20499;-75
2023/06/29 03:50:58;;;;;;;3.20;1.90;;;;;;;15.98;55.02;96676.63;4954067;28;20058;-75
2023/06/29 03:53:26;;;;;;;2.00;1.90;;;;;;;15.96;54.97;96673.41;4954034;29;20047;-75
2023/06/29 03:55:54;;;;;;;2.33;2.15;;;;;;;15.93;54.97;96681.72;4954098;29;20089;-75
2023/06/29 03:58:23;;;;;;;2.47;2.13;;;;;;;15.95;54.73;96671.78;4954078;28;20051;-75
2023/06/29 04:00:51;;;;;;;2.63;1.85;;;;;;;15.99;54.86;96672.97;4954558;28;20051;-75
2023/06/29 04:03:19;;;;;;;4.70;2.25;;;;;;;16.01;55.07;96675.41;4947917;29;20401;-75
2023/06/29 04:05:47;;;;;;;3.08;1.90;;;;;;;16.02;55.04;96674.38;4935108;29;20056;-75
2023/06/29 04:08:14;;;;;;;6.85;2.78;;;;;;;16.04;54.93;96675.75;4936217;29;20075;-75
2023/06/29 04:10:42;;;;;;;5.55;2.30;;;;;;;16.09;54.81;96676.94;4938505;29;20534;-75
2023/06/29 04:13:09;;;;;;;3.92;2.60;;;;;;;16.13;54.79;96676.31;4938904;29;20047;-75
2023/06/29 04:15:38;;;;;;;3.13;2.00;;;;;;;16.13;54.65;96673.66;4938884;29;20106;-75
2023/06/29 04:18:06;;;;;;;4.45;2.08;;;;;;;16.13;54.46;96672.88;4938556;29;20474;-75
2023/06/29 04:20:34;;;;;;;2.58;2.28;;;;;;;16.09;54.68;96671.69;4938469;29;20052;-75
2023/06/29 04:23:01;;;;;;;2.35;2.13;;;;;;;16.08;54.85;96685.88;4933451;29;20075;-75
2023/06/29 04:25:29;;;;;;;2.58;2.15;;;;;;;16.10;54.81;96687.28;4919669;29;20064;-75
2023/06/29 04:27:56;;;;;;;4.95;2.13;;;;;;;16.08;55.05;96685.88;4926671;29;20079;-75
2023/06/29 04:30:24;;;;;;;1.83;1.67;;;;;;;16.11;55.56;96680.16;4937666;29;20103;-75
2023/06/29 04:32:53;;;;;;;2.72;1.95;;;;;;;16.19;55.53;96690.44;4921236;29;20055;-75
2023/06/29 04:35:21;;;;;;;2.67;2.45;;;;;;;16.19;54.87;96685.19;4919487;29;20059;-75
2023/06/29 04:37:48;;;;;;;3.15;2.20;;;;;;;16.17;54.91;96688.00;4919409;29;20517;-75
2023/06/29 04:40:16;;;;;;;3.20;2.17;;;;;;;16.19;54.93;96685.97;4927389;29;20067;-73
2023/06/29 04:42:48;;;;;;;2.78;2.17;;;;;;;16.22;54.88;96679.47;4938049;29;20056;-75
2023/06/29 04:45:18;;;;;;;3.13;2.15;;;;;;;16.30;54.63;96681.84;4938055;29;20082;-74
2023/06/29 04:47:46;;;;;;;4.78;2.63;;;;;;;16.33;54.50;96677.97;4919954;29;20079;-75
2023/06/29 04:50:15;;;;;;;5.85;2.20;;;;;;;16.35;54.53;96676.72;4923669;29;20048;-75
2023/06/29 04:52:43;;;;;;;3.17;2.25;;;;;;;16.39;54.57;96679.75;4936718;29;20110;-75
2023/06/29 04:55:11;;;;;;;3.03;2.58;;;;;;;16.46;54.37;96676.03;4934231;29;20130;-74
2023/06/29 04:57:38;;;;;;;3.40;2.80;;;;;;;16.53;54.48;96672.50;4937905;29;20100;-73
2023/06/29 05:00:10;;;;;;;4.10;3.55;;;;;;;16.56;54.67;96674.72;4937991;29;20052;-74
2023/06/29 05:02:39;;;;;;;6.60;4.55;;;;;;;16.55;54.49;96675.72;4939092;29;20052;-76
2023/06/29 05:05:07;;;;;;;8.27;5.03;;;;;;;16.54;54.59;96677.56;4929533;29;20064;-75
2023/06/29 05:07:37;;;;;;;5.70;4.53;;;;;;;16.52;54.98;96671.72;4931055;29;20060;-75
2023/06/29 05:10:06;;;;;;;5.40;4.40;;;;;;;16.51;54.86;96664.03;4939262;29;20058;-75
2023/06/29 05:12:34;;;;;;;7.38;4.40;;;;;;;16.54;54.85;96663.59;4942934;29;20607;-75
2023/06/29 05:15:01;;;;;;;4.88;4.30;;;;;;;16.58;55.05;96659.50;4931454;29;20044;-76
2023/06/29 05:17:29;;;;;;;7.13;4.40;;;;;;;16.62;55.02;96656.22;4935080;29;20055;-75
2023/06/29 05:19:59;;;;;;;9.68;4.55;;;;;;;16.65;55.06;96657.63;4940683;29;20142;-75
2023/06/29 05:22:26;;;;;;;5.32;4.25;;;;;;;16.68;55.03;96659.78;4938101;29;20051;-75
2023/06/29 05:24:55;;;;;;;5.38;4.30;;;;;;;16.74;54.85;96661.56;4924819;29;20056;-76
2023/06/29 05:27:23;;;;;;;3.97;3.42;;;;;;;16.84;54.82;96667.16;4920495;29;20059;-75
2023/06/29 05:29:51;;;;;;;7.10;3.40;;;;;;;16.88;54.75;96665.69;4926642;29;20107;-75
2023/06/29 05:32:18;;;;;;;4.10;3.10;;;;;;;16.95;54.82;96662.19;4923328;29;20532;-76
2023/06/29 05:34:46;;;;;;;3.55;2.97;;;;;;;17.03;54.73;96661.88;4938236;29;20056;-75
2023/06/29 05:37:13;;;;;;;7.43;3.88;;;;;;;17.05;55.07;96655.38;4930930;29;20055;-75
2023/06/29 05:39:41;;;;;;;9.43;4.28;;;;;;;17.10;54.88;96657.34;4928136;29;20076;-75
2023/06/29 05:42:10;;;;;;;5.40;4.22;;;;;;;17.16;54.94;96661.72;4925253;29;20052;-76
2023/06/29 05:44:38;;;;;;;7.97;5.28;;;;;;;17.22;54.73;96655.56;4937401;29;20083;-77
2023/06/29 05:47:06;;;;;;;7.88;5.22;;;;;;;17.27;54.56;96658.34;4921762;29;20063;-77
2023/06/29 05:49:36;;;;;;;6.85;5.53;;;;;;;17.32;54.65;96655.03;4918502;29;20056;-78
2023/06/29 05:52:04;;;;;;;7.13;5.05;;;;;;;17.39;54.64;96657.59;4919566;29;20143;-77
2023/06/29 05:54:32;;;;;;;6.78;4.95;;;;;;;17.47;55.21;96646.72;4925291;29;20119;-76
2023/06/29 05:57:00;;;;;;;5.13;4.40;;;;;;;17.58;55.11;96653.06;4937822;29;20472;-76
2023/06/29 05:59:30;;;;;;;6.72;4.70;;;;;;;17.69;55.16;96650.47;4926207;29;20058;-77
2023/06/29 06:01:57;;;;;;;10.02;5.15;;;;;;;17.78;54.87;96658.88;4931007;29;20111;-77
2023/06/29 06:04:25;;;;;;;6.63;4.80;;;;;;;17.86;55.03;96655.09;4920447;29;20060;-76
2023/06/29 06:06:53;;;;;;;7.72;4.95;;;;;;;17.96;54.98;96651.94;4934562;29;20138;-77
2023/06/29 06:09:20;;;;;;;7.03;5.00;;;;;;;18.03;55.05;96656.06;4923981;29;20205;-77
2023/06/29 06:11:48;;;;;;;5.72;5.10;;;;;;;18.11;54.83;96657.56;4936707;29;20115;-77
2023/06/29 06:14:15;;;;;;;7.07;5.43;;;;;;;18.20;54.53;96655.41;4935981;29;20060;-76
2023/06/29 06:16:44;;;;;;;7.75;6.47;;;;;;;18.27;53.73;96661.38;4930717;29;20052;-75
2023/06/29 06:19:12;;;;;;;9.65;7.00;;;;;;;18.35;53.27;96661.03;4935911;29;20059;-76
2023/06/29 06:21:40;;;;;;;7.93;5.97;;;;;;;18.44;53.28;96661.50;4934427;29;20095;-75
2023/06/29 06:24:08;;;;;;;8.65;5.35;;;;;;;18.53;53.10;96657.47;4934032;29;20083;-74
2023/06/29 06:26:35;;;;;;;7.40;5.85;;;;;;;18.62;52.84;96657.91;4926669;29;20464;-75
2023/06/29 06:29:03;;;;;;;8.40;5.40;;;;;;;18.69;52.54;96654.13;4935858;29;20542;-75
2023/06/29 06:31:30;;;;;;;6.30;5.38;;;;;;;18.79;52.48;96660.69;4930198;29;20477;-75
2023/06/29 06:34:02;;;;;;;8.65;5.05;;;;;;;18.87;52.51;96658.50;4926379;29;20114;-74
2023/06/29 06:36:30;;;;;;;7.75;4.80;;;;;;;18.98;52.71;96661.31;4930008;29;20047;-74
2023/06/29 06:38:59;;;;;;;7.65;4.05;;;;;;;19.06;52.67;96653.84;4917266;29;20044;-75
2023/06/29 06:41:27;;;;;;;5.80;3.20;;;;;;;19.16;51.73;96663.81;4932428;29;20056;-75
2023/06/29 06:43:54;;;;;;;8.75;2.90;;;;;;;19.27;51.44;96654.25;4926096;29;20075;-75
2023/06/29 06:46:22;;;;;;;3.33;2.50;;;;;;;19.41;50.94;96662.69;4926945;29;20071;-74
2023/06/29 06:48:49;;;;;;;3.50;2.20;;;;;;;19.53;50.56;96651.03;4917519;29;20048;-74
2023/06/29 06:51:18;;;;;;;8.05;2.50;;;;;;;19.65;50.21;96658.91;4917074;29;20472;-74
2023/06/29 06:53:46;;;;;;;3.45;2.13;;;;;;;19.73;49.84;96660.41;4917466;29;20508;-74
2023/06/29 06:56:13;;;;;;;2.25;1.92;;;;;;;19.80;49.45;96657.59;4917023;29;20413;-74
2023/06/29 06:58:41;;;;;;;4.05;2.45;;;;;;;19.89;49.39;96649.00;4916915;29;20048;-74
2023/06/29 07:01:09;;;;;;;4.05;2.95;;;;;;;20.04;49.29;96647.66;4917768;29;20048;-74
2023/06/29 07:03:37;;;;;;;11.45;2.75;;;;;;;20.19;48.54;96649.75;4928252;29;20079;-74
2023/06/29 07:06:05;;;;;;;6.32;3.03;;;;;;;20.30;48.13;96635.63;4928137;29;20126;-74
2023/06/29 07:08:35;;;;;;;3.13;2.15;;;;;;;20.41;47.59;96634.72;4925193;29;20051;-74
2023/06/29 07:11:03;;;;;;;6.68;2.10;;;;;;;20.54;47.67;96631.72;4935733;29;20051;-74
2023/06/29 07:13:31;;;;;;;2.78;2.22;;;;;;;20.65;46.94;96632.69;4935630;29;20436;-74
2023/06/29 07:15:58;;;;;;;2.75;2.20;;;;;;;20.75;46.83;96632.00;4934800;29;20111;-74
2023/06/29 07:18:26;;;;;;;2.65;2.00;;;;;;;20.87;46.53;96632.69;4935216;29;20106;-74
2023/06/29 07:20:54;;;;;;;3.47;2.30;;;;;;;20.99;46.13;96629.94;4935722;29;20048;-74
2023/06/29 07:23:24;;;;;;;10.20;2.30;;;;;;;21.12;46.00;96626.09;4935206;29;20515;-74
2023/06/29 07:25:56;;;;;;;3.67;2.28;;;;;;;21.21;45.60;96627.28;4928211;29;20145;-74
2023/06/29 07:28:24;;;;;;;4.15;2.15;;;;;;;21.31;44.39;96623.91;4932333;29;20055;-74
2023/06/29 07:30:51;;;;;;;5.65;1.98;;;;;;;21.42;43.65;96630.16;4918674;29;20048;-74
2023/06/29 07:33:19;;;;;;;2.40;1.35;;;;;;;21.50;43.09;96624.41;4919182;29;20047;-74
2023/06/29 07:35:47;;;;;;;3.58;1.75;;;;;;;21.57;43.11;96622.34;4920904;29;20130;-74
2023/06/29 07:38:14;;;;;;;2.88;1.52;;;;;;;21.65;41.81;96619.25;4934354;29;20443;-74
2023/06/29 07:40:42;;;;;;;2.05;1.17;;;;;;;;;;4930757;29;20571;-74
2023/06/29 07:43:11;;;;;;;3.63;1.50;;;;;;;21.81;41.56;96620.97;4961298;23;20055;-75
2023/06/29 07:45:38;;;;;;;2.50;1.40;;;;;;;21.91;41.16;96622.09;4934358;29;20083;-76
2023/06/29 07:48:07;;;;;;;2.30;1.40;;;;;;;21.99;40.50;96621.63;4926914;29;20080;-89
2023/06/29 07:50:37;;;;;;;1.40;1.25;;;;;;;22.05;39.90;96623.28;4939721;29;20070;-89
2023/06/29 07:53:31;;;;;;;2.95;1.50;;;;;;;22.10;39.66;96618.00;4933467;29;20078;-89
2023/06/29 07:56:02;;;;;;;3.17;2.03;;;;;;;22.18;40.25;96622.84;4924724;29;20063;-84
2023/06/29 07:58:32;;;;;;;2.47;1.77;;;;;;;22.29;40.09;96617.63;4926604;29;20063;-88
2023/06/29 08:01:03;;;;;;;4.35;1.27;;;;;;;22.41;40.34;96623.53;4934384;29;20052;-87
2023/06/29 08:03:32;;;;;;;2.55;1.42;;;;;;;22.48;40.18;96616.16;4933844;29;20056;-85
2023/06/29 08:06:10;;;;;;;3.97;1.33;;;;;;;22.55;39.54;96621.25;4945818;29;20488;-85
2023/06/29 08:08:41;;;;;;;2.70;1.60;;;;;;;22.60;38.86;96615.94;4938994;29;20079;-86
2023/06/29 08:11:12;;;;;;;4.20;1.88;;;;;;;22.68;38.74;96610.16;4946301;29;20091;-87
2023/06/29 08:13:41;;;;;;;7.55;1.98;;;;;;;22.79;39.29;96608.34;4947021;29;20080;-89
2023/06/29 08:16:09;;;;;;;2.97;1.45;;;;;;;22.89;38.79;96603.03;4947235;29;20052;-87
2023/06/29 08:18:37;;;;;;;2.25;1.52;;;;;;;22.98;38.87;96604.16;4948070;29;20059;-88
2023/06/29 08:21:06;;;;;;;2.58;1.95;;;;;;;23.08;38.48;96603.41;4947437;29;20060;-88
2023/06/29 08:23:34;;;;;;;3.17;1.35;;;;;;;23.19;38.17;96604.25;4961985;29;20364;-85
2023/06/29 08:26:02;;;;;;;3.55;1.60;;;;;;;23.27;38.07;96598.41;4950401;29;20523;-83
2023/06/29 08:28:30;;;;;;;6.43;1.42;;;;;;;23.34;37.87;96598.97;4940412;29;20048;-84
2023/06/29 08:30:59;;;;;;;2.53;1.35;;;;;;;23.44;37.21;96600.84;4936591;29;20055;-86
2023/06/29 08:33:26;;;;;;;3.78;1.08;;;;;;;23.50;37.50;96598.97;4952018;29;20084;-84
2023/06/29 08:35:54;;;;;;;2.30;1.25;;;;;;;23.56;37.13;96595.28;4954743;29;20058;-83
2023/06/29 08:38:22;;;;;;;2.10;1.20;;;;;;;23.62;37.10;96602.22;4936492;29;20465;-82
2023/06/29 08:40:50;;;;;;;3.47;1.50;;;;;;;23.73;36.88;96597.69;4930945;29;20112;-86
2023/06/29 08:43:18;;;;;;;3.85;1.50;;;;;;;23.82;37.10;96596.91;4956626;29;20058;-87
2023/06/29 08:45:46;;;;;;;3.50;1.48;;;;;;;23.93;36.62;96594.25;4940510;29;20447;-86
2023/06/29 08:48:18;;;;;;;1.42;1.30;;;;;;;24.04;36.59;96588.63;4931163;29;20052;-87
2023/06/29 08:50:54;;;;;;;2.17;1.70;;;;;;;24.19;36.67;96595.03;4965206;29;20051;-87
2023/06/29 08:53:22;;;;;;;1.88;1.35;;;;;;;24.32;36.96;96591.00;4944738;29;20051;-85
2023/06/29 08:55:51;;;;;;;2.60;1.00;;;;;;;24.41;36.51;96589.38;4967373;29;20507;-86
2023/06/29 08:58:21;;;;;;;1.98;1.20;;;;;;;24.52;36.09;96595.53;4967070;29;20047;-84
2023/06/29 09:00:51;;;;;;;1.63;1.50;;;;;;;24.63;35.59;96589.06;4958638;29;20058;-86
2023/06/29 09:03:22;;;;;;;2.88;1.45;;;;;;;24.72;35.23;96586.66;4947025;29;20055;-86
2023/06/29 09:05:54;;;;;;;3.85;1.40;;;;;;;24.82;34.98;96581.28;4927182;29;20522;-88
2023/06/29 09:08:23;;;;;;;2.50;1.50;;;;;;;24.92;35.52;96581.22;4928056;29;20064;-84
2023/06/29 09:10:52;;;;;;;2.55;1.27;;;;;;;25.06;35.44;96574.22;4938220;29;20054;-84
2023/06/29 09:13:19;;;;;;;3.60;1.20;;;;;;;25.19;35.13;96580.00;4945689;29;20131;-85
2023/06/29 09:15:49;;;;;;;1.60;1.35;;;;;;;25.32;34.79;96581.28;4938221;29;20504;-87
2023/06/29 09:18:16;;;;;;;2.72;1.50;;;;;;;25.41;34.53;96577.78;4923158;29;20058;-83
2023/06/29 09:20:45;;;;;;;2.67;1.50;;;;;;;25.41;34.58;96583.13;4923872;29;20108;-84
2023/06/29 09:23:14;;;;;;;1.30;1.20;;;;;;;25.43;34.52;96586.31;4922696;29;20056;-85
2023/06/29 09:25:41;;;;;;;4.05;1.63;;;;;;;25.48;34.29;96572.91;4923050;29;20091;-83
2023/06/29 09:28:09;;;;;;;2.17;1.38;;;;;;;25.58;34.17;96574.72;4923402;29;20054;-84
2023/06/29 09:30:38;;;;;;;2.80;1.38;;;;;;;25.64;34.09;96568.25;4928093;29;20059;-85
2023/06/29 09:33:08;;;;;;;1.92;1.27;;;;;;;25.73;34.10;96571.13;4942788;29;20044;-85
2023/06/29 09:35:38;;;;;;;3.58;1.23;;;;;;;25.86;34.47;96567.00;4941619;29;20059;-88
2023/06/29 09:38:08;;;;;;;2.13;1.20;;;;;;;26.03;33.70;96555.94;4940476;29;20052;-89
2023/06/29 09:40:52;;;;;;;2.92;1.58;;;;;;;26.21;33.29;96555.22;4939906;29;20067;-87
2023/06/29 09:43:22;;;;;;;1.90;1.23;;;;;;;26.33;32.78;96554.03;4939966;29;20048;-90
2023/06/29 09:45:52;;;;;;;2.08;1.20;;;;;;;26.42;32.79;96552.34;4940554;29;20052;-84
2023/06/29 09:48:22;;;;;;;1.20;1.10;;;;;;;26.54;32.36;96557.28;4936086;29;20063;-87
2023/06/29 09:50:55;;;;;;;6.50;1.67;;;;;;;26.67;32.45;96565.44;4921377;29;20052;-85
2023/06/29 09:53:31;;;;;;;2.15;1.25;;;;;;;26.75;32.36;96558.66;4937537;29;20050;-87
2023/06/29 09:56:01;;;;;;;1.65;1.10;;;;;;;26.79;32.51;96562.34;4941106;29;20431;-88
2023/06/29 09:58:31;;;;;;;2.67;1.40;;;;;;;26.85;32.37;96557.72;4953017;29;20059;-87
2023/06/29 10:01:00;;;;;;;2.35;1.45;;;;;;;26.88;31.97;96557.16;4948079;29;20066;-90
2023/06/29 10:03:31;;;;;;;2.17;1.45;;;;;;;26.93;31.75;96547.16;4949374;29;20051;-87
2023/06/29 10:06:04;;;;;;;2.67;1.23;;;;;;;27.09;32.41;96552.31;4939416;29;20048;-87
2023/06/29 10:08:35;;;;;;;1.35;1.20;;;;;;;27.23;31.64;96547.09;4935813;29;20055;-85
2023/06/29 10:11:05;;;;;;;2.20;1.20;;;;;;;27.30;31.75;96542.16;4935482;29;20052;-87
2023/06/29 10:13:38;;;;;;;1.35;1.25;;;;;;;27.46;31.98;96545.38;4928690;29;20107;-85
2023/06/29 10:16:09;;;;;;;5.85;1.40;;;;;;;27.59;31.82;96549.22;4930585;29;20476;-85
2023/06/29 10:18:42;;;;;;;1.48;1.20;;;;;;;27.76;31.19;96549.47;4927447;29;20477;-85
2023/06/29 10:21:09;;;;;;;2.10;1.10;;;;;;;27.90;31.53;96544.97;4941949;29;20078;-85
2023/06/29 10:23:42;;;;;;;2.30;1.40;;;;;;;28.02;30.96;96546.38;4945505;29;20055;-86
2023/06/29 10:26:11;;;;;;;2.03;1.10;;;;;;;28.08;30.83;96537.16;4935647;29;20072;-86
2023/06/29 10:28:40;;;;;;;1.67;1.27;;;;;;;28.15;31.13;96532.19;4925101;29;20397;-83
2023/06/29 10:31:08;;;;;;;3.00;1.50;;;;;;;28.24;30.77;96530.41;4933257;29;20527;-89
2023/06/29 10:33:46;;;;;;;1.40;1.25;;;;;;;28.27;30.77;96535.19;4932316;29;20055;-88
2023/06/29 10:36:16;;;;;;;3.78;1.48;;;;;;;28.28;30.98;96527.94;4948415;29;20448;-87
2023/06/29 10:38:46;;;;;;;1.63;1.42;;;;;;;28.31;30.34;96530.03;4944962;29;20048;-88
2023/06/29 10:41:27;;;;;;;5.15;1.50;;;;;;;28.40;30.44;96530.13;4948131;29;20059;-86
2023/06/29 10:43:57;;;;;;;2.03;1.52;;;;;;;28.50;30.09;96527.28;4944347;29;20056;-86
2023/06/29 10:46:41;;;;;;;2.95;1.70;;;;;;;28.59;30.24;96525.47;4939394;29;20053;-87
2023/06/29 10:49:20;;;;;;;8.98;1.85;;;;;;;28.66;29.84;96517.81;4927402;29;20059;-85
2023/06/29 10:51:53;;;;;;;3.65;1.40;;;;;;;28.65;29.47;96512.75;4938195;29;20083;-84
2023/06/29 10:54:25;;;;;;;1.70;1.50;;;;;;;28.62;29.95;96514.13;4942120;29;20468;-81
2023/06/29 10:56:58;;;;;;;2.13;1.13;;;;;;;28.62;29.99;96516.81;4942991;29;20543;-82
2023/06/29 10:59:26;;;;;;;2.38;1.52;;;;;;;28.58;30.10;96515.84;4943198;29;20103;-85
2023/06/29 11:01:54;;;;;;;1.60;1.42;;;;;;;28.50;30.29;96520.00;4943700;29;20104;-84
2023/06/29 11:04:23;;;;;;;5.30;1.50;;;;;;;28.47;30.14;96519.78;4944681;29;20079;-83
2023/06/29 11:07:10;;;;;;;2.28;1.30;;;;;;;28.43;30.79;96516.13;4943752;29;20415;-88
2023/06/29 11:09:41;;;;;;;2.55;1.60;;;;;;;28.39;30.33;96518.59;4943674;29;20496;-87
2023/06/29 11:12:12;;;;;;;2.22;1.60;;;;;;;28.41;31.22;96508.38;4946046;29;20051;-88
2023/06/29 11:14:50;;;;;;;1.95;1.60;;;;;;;28.44;30.53;96513.13;4945084;29;20428;-87
2023/06/29 11:17:57;;;;;;;1.20;1.10;;;;;;;28.41;30.45;96507.59;4943735;29;20059;-87
2023/06/29 11:20:28;;;;;;;3.17;1.73;;;;;;;28.38;30.50;96508.94;4944574;29;20078;-84
2023/06/29 11:22:57;;;;;;;2.65;1.58;;;;;;;28.37;30.78;96504.69;4957173;29;20055;-89
2023/06/29 11:25:28;;;;;;;2.88;1.50;;;;;;;28.39;30.71;96505.19;4958616;29;20051;-87
2023/06/29 11:27:56;;;;;;;2.05;1.80;;;;;;;28.40;30.78;96501.41;4952469;29;20052;-88
2023/06/29 11:30:25;;;;;;;3.72;1.85;;;;;;;28.38;30.50;96502.78;4948171;29;20051;-90
2023/06/29 11:32:54;;;;;;;3.47;1.70;;;;;;;28.33;30.44;96498.31;4945226;29;20047;-88
2023/06/29 11:35:23;;;;;;;2.67;1.70;;;;;;;28.33;30.60;96499.13;4945596;29;20052;-87
2023/06/29 11:38:00;;;;;;;3.22;1.27;;;;;;;28.37;31.15;96495.84;4948671;29;20114;-87
2023/06/29 11:40:36;;;;;;;3.70;1.58;;;;;;;28.41;30.77;96491.47;4945499;29;20126;-88
2023/06/29 11:43:04;;;;;;;3.45;1.63;;;;;;;28.44;30.74;96497.03;4945319;29;20055;-87